KMKL

Mc Kellar-Sipes Regional Airport

Jackson, Tennessee, USA
METAR KMKL 181453Z 20006KT 10SM CLR M09/M12 A3055 RMK AO2 SLP354 T10891117 50002
Observed Flight Rules
Jan-18 @ 14:53 UTC (40 minutes ago) Visual Flight Rules
Wind Visibility Clouds
200° at 6 knots 10 miles
  • Clear skies
Temperatures Readings
Current -9°C / 16°F
Dewpoint -12°C / 10°F
Humidity 79%
Altimeter 30.55" Hg
Pressure 1035.4 hPa
Elevation 128
METAR KMKL 181453Z 20006KT 10SM CLR M09/M12 A3055 RMK AO2 SLP354 T10891117 50002
Observed Flight Rules
Jan-18 @ 14:53 UTC
(40 minutes ago)
VFR
Wind Visibility
200° at 6 knots 10 miles
Clouds
  • Clear skies
Temperature Dewpoint
-9°C / 16°F -12°C / 10°F
Humidity Altimeter Pressure
79% 30.55" Hg 1035.4 hPa